createdAt,value
2022-12-13T00:00:09.618Z,-8.3
2022-12-13T00:03:09.679Z,-8.3
2022-12-13T00:06:09.606Z,-8.3
2022-12-13T00:09:09.543Z,-8.2
2022-12-13T00:12:09.570Z,-8.2
2022-12-13T00:15:09.562Z,-8.2
2022-12-13T00:18:09.570Z,-8.2
2022-12-13T00:21:09.629Z,-8.2
2022-12-13T00:24:09.569Z,-8.1
2022-12-13T00:27:09.554Z,-8.1
2022-12-13T00:30:09.589Z,-8.1
2022-12-13T00:33:09.591Z,-8.2
2022-12-13T00:36:09.600Z,-8.3
2022-12-13T00:39:09.881Z,-8.4
2022-12-13T00:42:09.526Z,-8.4
2022-12-13T00:45:09.641Z,-8.4
2022-12-13T00:48:09.552Z,-8.4
2022-12-13T00:51:09.620Z,-8.5
2022-12-13T00:54:09.573Z,-8.5
2022-12-13T00:57:09.586Z,-8.5
2022-12-13T01:00:09.559Z,-8.5
2022-12-13T01:03:09.827Z,-8.6
2022-12-13T01:06:25.923Z,-8.5
2022-12-13T01:09:09.629Z,-8.4
2022-12-13T01:12:09.606Z,-8.4
2022-12-13T01:15:09.616Z,-8.4
2022-12-13T01:18:09.554Z,-8.4
2022-12-13T01:21:09.611Z,-8.3
2022-12-13T01:24:09.617Z,-8.4
2022-12-13T01:27:09.578Z,-8.4
2022-12-13T01:30:09.601Z,-8.4
2022-12-13T01:33:21.129Z,-8.4
2022-12-13T01:36:10.051Z,-8.4
2022-12-13T01:39:21.296Z,-8.3
2022-12-13T01:42:09.737Z,-8.4
2022-12-13T01:45:09.567Z,-8.4
2022-12-13T01:48:09.542Z,-8.4
2022-12-13T01:51:09.621Z,-8.4
2022-12-13T01:54:09.602Z,-8.4
2022-12-13T01:57:10.127Z,-8.4
2022-12-13T02:00:09.562Z,-8.4
2022-12-13T02:03:09.610Z,-8.4
2022-12-13T02:06:09.730Z,-8.3
2022-12-13T02:09:09.619Z,-8.4
2022-12-13T02:12:09.547Z,-8.2
2022-12-13T02:15:10.316Z,-8.1
2022-12-13T02:18:09.602Z,-8.1
2022-12-13T02:21:09.578Z,-8
2022-12-13T02:24:17.609Z,-8.1
2022-12-13T02:27:09.961Z,-8.1
2022-12-13T02:30:09.753Z,-8.1
2022-12-13T02:33:09.609Z,-8.1
2022-12-13T02:36:09.522Z,-8.1
2022-12-13T02:39:09.614Z,-8.2
2022-12-13T02:42:23.823Z,-8.3
2022-12-13T02:45:09.548Z,-8.4
2022-12-13T02:48:09.567Z,-8.5
2022-12-13T02:51:09.544Z,-8.6
2022-12-13T02:54:09.578Z,-8.5
2022-12-13T02:57:09.523Z,-8.6
2022-12-13T03:00:09.599Z,-8.4
2022-12-13T03:03:10.671Z,-8.5
2022-12-13T03:06:09.567Z,-8.6
2022-12-13T03:09:09.772Z,-8.6
2022-12-13T03:12:09.570Z,-8.6
2022-12-13T03:15:09.632Z,-8.7
2022-12-13T03:18:09.634Z,-8.7
2022-12-13T03:21:09.489Z,-8.7
2022-12-13T03:24:09.544Z,-8.8
2022-12-13T03:27:09.593Z,-8.9
2022-12-13T03:30:09.565Z,-8.9
2022-12-13T03:33:09.687Z,-8.8
2022-12-13T03:36:09.549Z,-8.8
2022-12-13T03:39:09.521Z,-8.8
2022-12-13T03:42:09.567Z,-8.6
2022-12-13T03:45:09.590Z,-8.4
2022-12-13T03:48:09.544Z,-8.4
2022-12-13T03:51:09.536Z,-8.4
2022-12-13T03:54:09.565Z,-8.5
2022-12-13T03:57:09.549Z,-8.6
2022-12-13T04:00:09.651Z,-8.5
2022-12-13T04:03:09.879Z,-8.4
2022-12-13T04:06:09.579Z,-8.1
2022-12-13T04:09:09.565Z,-8.1
2022-12-13T04:12:09.545Z,-8.1
2022-12-13T04:15:09.509Z,-8.1
2022-12-13T04:18:09.566Z,-7.9
2022-12-13T04:21:09.568Z,-7.8
2022-12-13T04:24:10.276Z,-7.8
2022-12-13T04:27:09.898Z,-7.6
2022-12-13T04:30:09.610Z,-7.7
2022-12-13T04:33:09.490Z,-7.6
2022-12-13T04:36:09.523Z,-7.8
2022-12-13T04:39:36.412Z,-7.9
2022-12-13T04:42:09.582Z,-7.9
2022-12-13T04:45:09.569Z,-8.1
2022-12-13T04:48:09.590Z,-8.1
2022-12-13T04:51:10.473Z,-8.2
2022-12-13T04:54:42.136Z,-8.3
2022-12-13T04:57:10.620Z,-8.3
2022-12-13T05:00:09.673Z,-8.4
2022-12-13T05:03:09.514Z,-8.4
2022-12-13T05:06:29.433Z,-8.4
2022-12-13T05:09:17.966Z,-8.4
2022-12-13T05:12:29.336Z,-8.3
2022-12-13T05:15:09.587Z,-8.4
2022-12-13T05:18:18.525Z,-8.4
2022-12-13T05:21:09.532Z,-8.4
2022-12-13T05:24:09.629Z,-8.5
2022-12-13T05:27:31.397Z,-8.3
2022-12-13T05:30:14.102Z,-8.1
2022-12-13T05:33:09.515Z,-8
2022-12-13T05:36:11.298Z,-8.2
2022-12-13T05:39:32.596Z,-8.3
2022-12-13T05:42:11.689Z,-8.3
2022-12-13T05:45:09.550Z,-8.2
2022-12-13T05:48:09.557Z,-8.3
2022-12-13T05:51:20.904Z,-8.2
2022-12-13T05:54:09.621Z,-8.2
2022-12-13T05:57:09.501Z,-8.1
2022-12-13T06:00:32.310Z,-8.1
2022-12-13T06:03:11.521Z,-8.1
2022-12-13T06:06:09.570Z,-8.1
2022-12-13T06:09:09.986Z,-8.1
2022-12-13T06:12:45.583Z,-8.3
2022-12-13T06:15:49.024Z,-8.3
2022-12-13T06:18:09.624Z,-8.3
2022-12-13T06:21:09.538Z,-8.3
2022-12-13T06:24:09.582Z,-8.4
2022-12-13T06:27:09.517Z,-8.4
2022-12-13T06:30:11.962Z,-8.4
2022-12-13T06:33:09.539Z,-8.4
2022-12-13T06:36:09.645Z,-8.4
2022-12-13T06:39:09.547Z,-8.3
2022-12-13T06:42:09.539Z,-8.2
2022-12-13T06:45:09.529Z,-8.1
2022-12-13T06:48:09.568Z,-8
2022-12-13T06:51:09.564Z,-7.9
2022-12-13T06:54:09.980Z,-7.9
2022-12-13T06:57:09.486Z,-7.9
2022-12-13T07:00:09.679Z,-7.9
2022-12-13T07:03:09.821Z,-7.9
2022-12-13T07:06:09.636Z,-7.8
2022-12-13T07:09:09.626Z,-7.8
2022-12-13T07:12:12.111Z,-7.8
2022-12-13T07:15:09.547Z,-7.9
2022-12-13T07:18:09.570Z,-7.9
2022-12-13T07:21:09.714Z,-8
2022-12-13T07:24:09.642Z,-8.1
2022-12-13T07:27:09.573Z,-8
2022-12-13T07:30:09.809Z,-7.9
2022-12-13T07:33:09.589Z,-7.8
2022-12-13T07:36:09.670Z,-7.8
2022-12-13T07:39:09.631Z,-7.7
2022-12-13T07:42:09.604Z,-7.7
2022-12-13T07:45:12.846Z,-7.8
2022-12-13T07:48:09.734Z,-7.9
2022-12-13T07:51:09.590Z,-7.9
2022-12-13T07:54:15.432Z,-7.8
2022-12-13T07:57:13.562Z,-7.6
2022-12-13T08:00:09.817Z,-7.5
2022-12-13T08:03:13.475Z,-7.3
2022-12-13T08:06:10.481Z,-7.2
2022-12-13T08:09:09.642Z,-7.1
2022-12-13T08:12:10.287Z,-7.1
2022-12-13T08:15:16.498Z,-7.1
2022-12-13T08:18:09.709Z,-6.9
2022-12-13T08:21:56.593Z,-6.9
2022-12-13T08:24:17.850Z,-6.8
2022-12-13T08:27:10.054Z,-6.6
2022-12-13T08:30:09.734Z,-6.4
2022-12-13T08:33:14.313Z,-6.4
2022-12-13T08:36:09.677Z,-6.2
2022-12-13T08:39:09.647Z,-6
2022-12-13T08:42:26.314Z,-5.9
2022-12-13T08:45:09.574Z,-5.8
2022-12-13T08:48:09.678Z,-5.5
2022-12-13T08:51:09.722Z,-5.4
2022-12-13T08:54:38.081Z,-5.2
2022-12-13T08:57:09.604Z,-5.1
2022-12-13T09:00:09.640Z,-5
2022-12-13T09:03:20.311Z,-5
2022-12-13T09:06:10.329Z,-5
2022-12-13T09:09:12.707Z,-5
2022-12-13T09:12:43.734Z,-4.9
2022-12-13T09:15:36.469Z,-4.9
2022-12-13T09:18:38.569Z,-4.8
2022-12-13T09:21:45.379Z,-4.8
2022-12-13T09:24:38.343Z,-4.7
2022-12-13T09:27:39.768Z,-4.6
2022-12-13T09:30:09.617Z,-4.5
2022-12-13T09:33:48.032Z,-4.4
2022-12-13T09:36:10.695Z,-4.4
2022-12-13T09:39:09.620Z,-4.4
2022-12-13T09:42:32.643Z,-4.3
2022-12-13T09:45:45.235Z,-4.2
2022-12-13T09:48:27.491Z,-4
2022-12-13T09:54:09.573Z,-3.6
2022-12-13T09:57:09.605Z,-3.3
2022-12-13T10:00:11.045Z,-3
2022-12-13T10:03:09.601Z,-2.7
2022-12-13T10:06:09.733Z,-2.4
2022-12-13T10:09:09.634Z,-2.2
2022-12-13T10:12:09.592Z,-2
2022-12-13T10:15:09.662Z,-1.8
2022-12-13T10:18:09.653Z,-1.5
2022-12-13T10:21:09.859Z,-1.3
2022-12-13T10:24:45.273Z,-0.9
2022-12-13T10:27:10.519Z,-0.4
2022-12-13T10:30:09.746Z,-0.2
2022-12-13T10:33:09.840Z,-0.2
2022-12-13T10:36:09.580Z,0.1
2022-12-13T10:39:09.624Z,0.4
2022-12-13T10:42:09.582Z,0.6
2022-12-13T10:45:09.598Z,0.9
2022-12-13T10:48:13.360Z,0.4
2022-12-13T10:51:10.334Z,0.2
2022-12-13T10:54:09.689Z,0.3
2022-12-13T10:57:09.647Z,0.7
2022-12-13T11:00:19.959Z,0.9
2022-12-13T11:03:09.639Z,0.7
2022-12-13T11:06:09.724Z,1
2022-12-13T11:09:27.040Z,0.8
2022-12-13T11:12:09.586Z,0.8
2022-12-13T11:15:09.578Z,0.6
2022-12-13T11:18:09.667Z,0.8
2022-12-13T11:21:09.563Z,0.8
2022-12-13T11:24:11.123Z,0.9
2022-12-13T11:27:09.603Z,0.6
2022-12-13T11:30:09.641Z,0.6
2022-12-13T11:33:09.714Z,0.4
2022-12-13T11:36:09.762Z,0.2
2022-12-13T11:39:09.611Z,0.1
2022-12-13T11:42:09.674Z,0
2022-12-13T11:45:09.587Z,-0.1
2022-12-13T11:48:09.726Z,0
2022-12-13T11:51:09.652Z,-0.1
2022-12-13T11:54:09.693Z,0
2022-12-13T11:57:10.210Z,0
2022-12-13T12:00:37.992Z,0
2022-12-13T12:03:10.404Z,-0.1
2022-12-13T12:06:09.586Z,-0.4
2022-12-13T12:09:09.649Z,-0.5
2022-12-13T12:12:09.608Z,-0.7
2022-12-13T12:15:33.265Z,-0.8
2022-12-13T12:18:09.604Z,-0.8
2022-12-13T12:21:09.661Z,-0.8
2022-12-13T12:24:09.597Z,-0.7
2022-12-13T12:27:09.662Z,-0.7
2022-12-13T12:30:09.638Z,-0.7
2022-12-13T12:33:11.547Z,-0.7
2022-12-13T12:36:09.664Z,-0.7
2022-12-13T12:39:09.627Z,-0.7
2022-12-13T12:42:09.645Z,-0.7
2022-12-13T12:45:17.437Z,-0.7
2022-12-13T12:51:09.616Z,-0.7
2022-12-13T12:54:09.669Z,-0.7
2022-12-13T12:57:09.769Z,-0.7
2022-12-13T13:00:11.390Z,-0.7
2022-12-13T13:03:26.454Z,-0.7
2022-12-13T13:06:11.954Z,-0.6
2022-12-13T13:09:09.617Z,-0.7
2022-12-13T13:12:45.161Z,-0.6
2022-12-13T13:15:09.624Z,-0.6
2022-12-13T13:18:11.163Z,-0.6
2022-12-13T13:21:09.749Z,-0.6
2022-12-13T13:24:09.692Z,-0.5
2022-12-13T13:27:09.600Z,-0.6
2022-12-13T13:30:09.810Z,-0.6
2022-12-13T13:33:13.481Z,-0.6
2022-12-13T13:36:09.637Z,-0.6
2022-12-13T13:39:10.907Z,-0.6
2022-12-13T13:42:09.738Z,-0.6
2022-12-13T13:45:09.613Z,-0.6
2022-12-13T13:48:21.261Z,-0.6
2022-12-13T13:51:09.679Z,-0.6
2022-12-13T13:54:09.670Z,-0.6
2022-12-13T13:57:09.579Z,-0.6
2022-12-13T14:00:09.855Z,-0.6
2022-12-13T14:03:36.030Z,-0.6
2022-12-13T14:06:09.716Z,-0.6
2022-12-13T14:09:09.626Z,-0.6
2022-12-13T14:12:09.737Z,-0.5
2022-12-13T14:15:10.624Z,-0.5
2022-12-13T14:18:09.609Z,-0.5
2022-12-13T14:21:09.576Z,-0.6
2022-12-13T14:24:09.543Z,-0.6
2022-12-13T14:27:09.728Z,-0.8
2022-12-13T14:30:34.052Z,-0.8
2022-12-13T14:33:09.573Z,-1
2022-12-13T14:36:09.706Z,-1.1
2022-12-13T14:39:27.236Z,-1.2
2022-12-13T14:42:09.652Z,-1.4
2022-12-13T14:45:09.625Z,-1.6
2022-12-13T14:48:09.601Z,-1.7
2022-12-13T14:51:09.611Z,-1.9
2022-12-13T14:54:09.729Z,-1.9
2022-12-13T14:57:09.651Z,-2.1
2022-12-13T15:00:16.677Z,-2.3
2022-12-13T15:03:09.658Z,-2.5
2022-12-13T15:06:09.662Z,-2.7
2022-12-13T15:09:09.586Z,-2.9
2022-12-13T15:12:33.873Z,-2.9
2022-12-13T15:15:09.628Z,-3.1
2022-12-13T15:18:09.640Z,-3.1
2022-12-13T15:21:16.651Z,-3.1
2022-12-13T15:24:09.546Z,-3.3
2022-12-13T15:27:11.406Z,-3.5
2022-12-13T15:30:09.747Z,-3.6
2022-12-13T15:33:09.668Z,-3.7
2022-12-13T15:36:09.619Z,-3.8
2022-12-13T15:39:12.382Z,-3.8
2022-12-13T15:42:09.517Z,-3.9
2022-12-13T15:45:09.615Z,-3.8
2022-12-13T15:48:09.621Z,-3.8
2022-12-13T15:51:09.566Z,-3.8
2022-12-13T15:54:09.652Z,-3.8
2022-12-13T15:57:09.572Z,-3.9
2022-12-13T16:00:09.671Z,-4.1
2022-12-13T16:03:18.126Z,-4.1
2022-12-13T16:06:09.602Z,-4.1
2022-12-13T16:09:09.572Z,-4.2
2022-12-13T16:12:09.587Z,-4.2
2022-12-13T16:15:33.009Z,-4.3
2022-12-13T16:18:09.504Z,-4.3
2022-12-13T16:21:09.511Z,-4.5
2022-12-13T16:24:09.545Z,-4.6
2022-12-13T16:27:17.121Z,-4.8
2022-12-13T16:30:09.687Z,-4.9
2022-12-13T16:33:37.499Z,-4.9
2022-12-13T16:36:09.474Z,-5
2022-12-13T16:39:09.540Z,-5
2022-12-13T16:42:09.544Z,-5.1
2022-12-13T16:45:51.606Z,-5.3
2022-12-13T16:48:09.835Z,-5.3
2022-12-13T16:51:09.523Z,-5.4
2022-12-13T16:54:09.572Z,-5.6
2022-12-13T16:57:09.549Z,-5.7
2022-12-13T17:00:09.531Z,-5.6
2022-12-13T17:03:09.492Z,-5.7
2022-12-13T17:06:09.618Z,-5.7
2022-12-13T17:09:09.519Z,-5.8
2022-12-13T17:12:09.553Z,-5.8
2022-12-13T17:15:09.565Z,-5.8
2022-12-13T17:18:11.702Z,-5.8
2022-12-13T17:21:09.581Z,-5.8
2022-12-13T17:24:09.620Z,-5.5
2022-12-13T17:27:09.544Z,-5.5
2022-12-13T17:30:09.550Z,-5.6
2022-12-13T17:33:09.536Z,-5.4
2022-12-13T17:36:09.527Z,-5.4
2022-12-13T17:39:09.601Z,-5.3
2022-12-13T17:42:09.508Z,-5.1
2022-12-13T17:45:09.593Z,-5.1
2022-12-13T17:48:09.584Z,-5.1
2022-12-13T17:51:09.538Z,-5.2
2022-12-13T17:54:09.495Z,-5.2
2022-12-13T17:57:09.541Z,-5.2
2022-12-13T18:00:09.694Z,-5.3
2022-12-13T18:03:09.905Z,-5.3
2022-12-13T18:06:09.584Z,-5.3
2022-12-13T18:09:09.618Z,-5.3
2022-12-13T18:12:09.573Z,-5.3
2022-12-13T18:15:09.613Z,-5.3
2022-12-13T18:18:21.560Z,-5.4
2022-12-13T18:21:09.627Z,-5.5
2022-12-13T18:24:09.600Z,-5.5
2022-12-13T18:27:09.559Z,-5.4
2022-12-13T18:30:10.173Z,-5.4
2022-12-13T18:33:09.580Z,-5.4
2022-12-13T18:36:09.645Z,-5.4
2022-12-13T18:39:09.588Z,-5.4
2022-12-13T18:42:09.576Z,-5.4
2022-12-13T18:45:09.628Z,-5.3
2022-12-13T18:48:09.599Z,-5.3
2022-12-13T18:51:09.786Z,-5.3
2022-12-13T18:54:09.634Z,-5.3
2022-12-13T18:57:09.542Z,-5.3
2022-12-13T19:00:09.632Z,-5.2
2022-12-13T19:03:09.960Z,-5.3
2022-12-13T19:06:09.583Z,-5.5
2022-12-13T19:09:09.614Z,-5.6
2022-12-13T19:12:09.566Z,-5.6
2022-12-13T19:15:09.611Z,-5.6
2022-12-13T19:18:09.659Z,-5.6
2022-12-13T19:21:09.560Z,-5.6
2022-12-13T19:24:13.832Z,-5.8
2022-12-13T19:27:09.748Z,-5.8
2022-12-13T19:30:09.569Z,-5.8
2022-12-13T19:33:09.607Z,-5.8
2022-12-13T19:36:09.580Z,-5.8
2022-12-13T19:39:09.627Z,-5.8
2022-12-13T19:42:09.523Z,-5.9
2022-12-13T19:45:09.588Z,-5.8
2022-12-13T19:48:09.598Z,-5.9
2022-12-13T19:51:09.546Z,-5.8
2022-12-13T19:54:09.547Z,-5.9
2022-12-13T19:57:16.325Z,-5.8
2022-12-13T20:00:09.623Z,-5.8
2022-12-13T20:03:09.951Z,-5.8
2022-12-13T20:06:09.573Z,-5.8
2022-12-13T20:09:09.565Z,-5.7
2022-12-13T20:12:09.557Z,-5.8
2022-12-13T20:15:09.539Z,-5.8
2022-12-13T20:18:09.590Z,-6
2022-12-13T20:21:22.530Z,-6.1
2022-12-13T20:24:09.534Z,-6.1
2022-12-13T20:27:09.671Z,-6.1
2022-12-13T20:30:09.496Z,-6.1
2022-12-13T20:33:09.602Z,-6.3
2022-12-13T20:36:34.496Z,-6.3
2022-12-13T20:39:09.620Z,-6.4
2022-12-13T20:42:09.521Z,-6.3
2022-12-13T20:45:09.578Z,-6.3
2022-12-13T20:48:09.589Z,-6.4
2022-12-13T20:51:09.573Z,-6.4
2022-12-13T20:54:09.523Z,-6.4
2022-12-13T20:57:09.599Z,-6.5
2022-12-13T21:00:09.700Z,-6.6
2022-12-13T21:03:09.552Z,-6.6
2022-12-13T21:06:09.622Z,-6.4
2022-12-13T21:09:09.762Z,-6.4
2022-12-13T21:12:09.630Z,-6.4
2022-12-13T21:15:09.513Z,-6.3
2022-12-13T21:18:09.522Z,-6.2
2022-12-13T21:21:09.565Z,-6.1
2022-12-13T21:24:09.544Z,-5.9
2022-12-13T21:27:09.514Z,-5.8
2022-12-13T21:30:09.612Z,-5.7
2022-12-13T21:33:09.551Z,-5.6
2022-12-13T21:36:09.525Z,-5.7
2022-12-13T21:39:09.531Z,-5.8
2022-12-13T21:42:09.512Z,-5.7
2022-12-13T21:45:11.581Z,-5.8
2022-12-13T21:48:09.613Z,-5.8
2022-12-13T21:51:09.491Z,-5.8
2022-12-13T21:54:09.575Z,-5.9
2022-12-13T21:57:09.529Z,-5.8
2022-12-13T22:00:09.626Z,-5.8
2022-12-13T22:03:09.519Z,-5.8
2022-12-13T22:06:09.596Z,-5.9
2022-12-13T22:09:10.207Z,-5.9
2022-12-13T22:12:09.542Z,-5.9
2022-12-13T22:15:09.543Z,-5.9
2022-12-13T22:18:09.564Z,-5.9
2022-12-13T22:21:09.489Z,-5.9
2022-12-13T22:24:09.630Z,-6
2022-12-13T22:27:09.472Z,-6.1
2022-12-13T22:30:09.583Z,-6.1
2022-12-13T22:33:09.556Z,-6.1
2022-12-13T22:36:09.555Z,-6.1
2022-12-13T22:39:09.502Z,-6
2022-12-13T22:42:09.603Z,-5.9
2022-12-13T22:45:09.651Z,-5.9
2022-12-13T22:48:09.587Z,-5.9
2022-12-13T22:51:09.527Z,-5.9
2022-12-13T22:54:09.480Z,-5.8
2022-12-13T22:57:09.545Z,-5.9
2022-12-13T23:00:10.061Z,-5.9
2022-12-13T23:03:09.895Z,-5.9
2022-12-13T23:06:09.481Z,-5.8
2022-12-13T23:09:09.556Z,-5.8
2022-12-13T23:12:09.574Z,-5.8
2022-12-13T23:15:09.687Z,-5.8
2022-12-13T23:18:09.551Z,-5.9
2022-12-13T23:21:09.546Z,-5.9
2022-12-13T23:24:09.492Z,-5.8
2022-12-13T23:27:09.534Z,-5.8
2022-12-13T23:30:09.632Z,-5.8
2022-12-13T23:33:09.493Z,-5.8
2022-12-13T23:36:18.392Z,-5.8
2022-12-13T23:39:09.535Z,-5.7
2022-12-13T23:42:09.603Z,-5.7
2022-12-13T23:45:09.579Z,-5.6
2022-12-13T23:48:09.496Z,-5.6
2022-12-13T23:51:09.631Z,-5.6
2022-12-13T23:54:09.560Z,-5.6
2022-12-13T23:57:09.618Z,-5.7
